Terminal Aerodrome Forecast
Issued by NWS

Home | Current Version | Previous Version | Text Only | Print | Product List | Glossary On
Versions: 1 2 3 4 5 6 7 8 9 10 11 12 13 14 15 16 17 18 19 20 21 22 23 24 25 26 27 28 29 30 31
000
FTUS43 KLSX 180500
TAFSUS
TAF
KSUS 180520Z 1806/1906 VRB03KT 3SM BR SCT009 BKN035
      TEMPO 1806/1809 1/2SM FG BKN004
     FM181600 VRB03KT P6SM SCT030 SCT250
     FM190000 18004KT P6SM SCT030=

USA.gov is the U.S. government's official web portal to all federal, state and local government web resources and services.